Time;durP1;ratioP1;P1;durP2;ratioP2;P2;SDS_P1;SDS_P2;PMS_P1;PMS_P2;Temp;Humidity;BMP_temperature;BMP_pressure;BME280_temperature;BME280_humidity;BME280_pressure;Samples;Min_cycle;Max_cycle;Signal;HPM_P1;HPM_P2
2022/03/27 00:01:15;;;;;;;2.97;2.17;;;;;;;21.26;28.28;99929.00;5133071;28;20039;-58
2022/03/27 00:03:41;;;;;;;3.08;2.30;;;;;;;21.25;28.53;99931.00;5132927;28;20046;-58
2022/03/27 00:06:06;;;;;;;2.83;2.08;;;;;;;21.25;28.52;99938.53;5132961;28;20051;-58
2022/03/27 00:08:32;;;;;;;3.05;2.00;;;;;;;21.26;28.31;99949.28;5132946;28;20099;-58
2022/03/27 00:13:42;;;;;;;3.47;2.03;;;;;;;21.25;28.37;99950.47;5132813;28;20095;-59
2022/03/27 00:16:09;;;;;;;3.10;1.85;;;;;;;21.23;28.23;99943.66;5132868;28;20047;-58
2022/03/27 00:18:36;;;;;;;3.08;2.10;;;;;;;21.23;28.47;99950.03;5132838;28;20430;-58
2022/03/27 00:21:02;;;;;;;3.33;2.25;;;;;;;21.22;28.40;99951.22;5096373;28;20047;-58
2022/03/27 00:23:28;;;;;;;2.72;1.83;;;;;;;21.21;28.46;99945.97;5132530;28;20100;-58
2022/03/27 00:25:54;;;;;;;3.40;1.90;;;;;;;21.22;28.52;99948.44;5132654;28;20172;-58
2022/03/27 00:28:20;;;;;;;2.88;1.92;;;;;;;21.22;28.27;99958.72;5132705;28;20335;-58
2022/03/27 00:30:45;;;;;;;3.05;2.10;;;;;;;21.21;28.38;99951.53;5132613;28;20046;-58
2022/03/27 00:33:10;;;;;;;2.95;1.90;;;;;;;21.22;28.35;99958.72;5132858;28;20050;-58
2022/03/27 00:35:36;;;;;;;2.72;1.77;;;;;;;21.21;28.32;99957.91;5131453;27;20051;-59
2022/03/27 00:38:02;;;;;;;2.88;1.88;;;;;;;21.19;28.29;99956.69;5132486;28;20542;-58
2022/03/27 00:40:27;;;;;;;2.75;1.70;;;;;;;21.22;28.37;99972.63;5132582;28;20031;-58
2022/03/27 00:42:52;;;;;;;3.50;2.00;;;;;;;21.21;28.50;99962.69;5132326;28;20148;-58
2022/03/27 00:45:18;;;;;;;2.80;1.95;;;;;;;21.21;28.55;99968.25;5132521;28;20039;-58
2022/03/27 00:47:44;;;;;;;3.08;2.05;;;;;;;21.20;28.57;99963.84;5132312;28;20046;-58
2022/03/27 00:50:10;;;;;;;3.00;1.70;;;;;;;21.21;28.49;99966.25;5132339;28;20053;-58
2022/03/27 00:52:36;;;;;;;2.42;1.75;;;;;;;21.22;28.65;99975.41;5132280;28;20050;-58
2022/03/27 00:55:02;;;;;;;2.78;1.95;;;;;;;21.19;28.47;99965.81;5132295;28;20035;-58
2022/03/27 00:57:27;;;;;;;3.15;2.08;;;;;;;21.19;28.49;99963.03;5099496;28;20145;-58
2022/03/27 00:59:53;;;;;;;3.15;2.22;;;;;;;21.22;28.74;99967.06;5132058;28;20047;-58
2022/03/27 01:02:20;;;;;;;3.25;2.20;;;;;;;21.21;28.71;99974.59;5132170;28;20112;-58
2022/03/27 01:04:47;;;;;;;3.28;2.15;;;;;;;21.22;28.67;99970.69;5131872;28;20130;-58
2022/03/27 01:07:21;;;;;;;2.85;2.00;;;;;;;21.21;28.84;99969.03;5132016;28;20039;-58
2022/03/27 01:09:47;;;;;;;3.10;1.98;;;;;;;21.22;28.69;99969.84;5132002;28;20043;-58
2022/03/27 01:12:34;;;;;;;3.10;1.80;;;;;;;21.19;28.57;99968.59;5132112;28;20586;-58
2022/03/27 01:15:01;;;;;;;2.90;1.92;;;;;;;21.23;28.50;99977.06;5113989;28;20054;-58
2022/03/27 01:17:27;;;;;;;2.70;1.65;;;;;;;21.22;28.49;99976.25;5131805;28;20032;-58
2022/03/27 01:19:55;;;;;;;3.13;1.80;;;;;;;21.22;28.75;99975.41;5131793;28;20095;-59
2022/03/27 01:22:21;;;;;;;2.97;2.03;;;;;;;21.22;28.55;99976.25;5131733;28;20051;-59
2022/03/27 01:24:49;;;;;;;2.70;1.88;;;;;;;21.23;28.81;99983.41;5131666;28;20047;-58
2022/03/27 01:27:15;;;;;;;2.70;1.98;;;;;;;21.22;28.71;99981.81;5127593;28;20046;-58
2022/03/27 01:29:40;;;;;;;2.53;1.73;;;;;;;21.23;28.83;99988.97;5131848;28;20051;-59
2022/03/27 01:32:08;;;;;;;3.67;2.13;;;;;;;21.24;28.86;99982.25;5131667;28;20042;-58
2022/03/27 01:34:34;;;;;;;2.58;1.75;;;;;;;21.24;28.74;99990.59;5131669;28;20043;-59
2022/03/27 01:37:09;;;;;;;2.72;2.00;;;;;;;21.23;28.81;99988.97;5131458;28;20118;-59
2022/03/27 01:39:36;;;;;;;2.55;1.83;;;;;;;21.25;28.44;99991.41;5129738;27;20123;-58
2022/03/27 01:42:03;;;;;;;3.28;2.10;;;;;;;21.26;28.65;99990.22;5131592;28;20035;-58
2022/03/27 01:44:28;;;;;;;3.05;1.80;;;;;;;21.26;28.67;99993.00;5131190;28;20130;-58
2022/03/27 01:46:55;;;;;;;2.83;1.75;;;;;;;21.28;28.59;99985.13;5130801;27;20047;-58
2022/03/27 01:49:22;;;;;;;2.70;1.85;;;;;;;21.29;28.29;99987.56;5131016;28;20073;-58
2022/03/27 01:51:47;;;;;;;2.90;2.00;;;;;;;21.28;28.44;99983.13;5131138;28;20134;-58
2022/03/27 01:54:14;;;;;;;3.15;2.20;;;;;;;21.31;28.41;99985.22;5131175;28;20558;-58
2022/03/27 01:56:40;;;;;;;3.38;2.35;;;;;;;21.30;28.74;99989.16;5131319;28;20380;-58
2022/03/27 01:59:07;;;;;;;2.92;1.88;;;;;;;21.32;28.53;99986.03;5131303;28;20506;-58
2022/03/27 02:01:34;;;;;;;2.72;1.83;;;;;;;21.32;28.61;99986.81;5130899;28;20555;-59
2022/03/27 02:04:00;;;;;;;3.03;1.83;;;;;;;21.32;28.46;99986.03;5131244;28;20284;-58
2022/03/27 02:06:26;;;;;;;2.70;1.73;;;;;;;21.31;28.44;99978.84;5131200;28;20130;-58
2022/03/27 02:08:52;;;;;;;2.72;1.70;;;;;;;21.33;28.56;99996.78;5130876;28;20143;-58
2022/03/27 02:11:17;;;;;;;3.10;1.80;;;;;;;21.33;28.57;99982.88;5131160;28;20035;-58
2022/03/27 02:13:43;;;;;;;2.88;2.00;;;;;;;21.32;28.39;99986.03;5130886;28;20039;-58
2022/03/27 02:16:09;;;;;;;3.00;2.00;;;;;;;21.33;28.22;99985.66;5130707;28;20562;-58
2022/03/27 02:18:34;;;;;;;4.00;1.90;;;;;;;21.34;28.26;99981.69;5130872;28;20043;-59
2022/03/27 02:21:00;;;;;;;2.83;1.70;;;;;;;21.34;28.15;99990.03;5130872;28;20414;-58
2022/03/27 02:23:27;;;;;;;2.78;1.88;;;;;;;21.37;28.37;99989.31;5130715;28;20046;-58
2022/03/27 02:25:53;;;;;;;3.10;2.05;;;;;;;21.39;28.41;99986.16;5130834;28;20031;-58
2022/03/27 02:28:19;;;;;;;3.08;1.95;;;;;;;21.37;27.97;99983.75;5130813;28;20058;-58
2022/03/27 02:30:45;;;;;;;3.40;2.13;;;;;;;21.38;28.24;99990.13;5130690;28;20041;-58
2022/03/27 02:33:10;;;;;;;3.35;2.03;;;;;;;21.35;28.29;99983.28;5130737;28;20047;-58
2022/03/27 02:35:36;;;;;;;3.45;2.38;;;;;;;21.37;27.90;99989.31;5130701;28;20043;-59
2022/03/27 02:38:05;;;;;;;2.60;1.80;;;;;;;21.37;27.96;100000.47;5130764;28;20395;-58
2022/03/27 02:40:39;;;;;;;2.58;1.67;;;;;;;21.36;27.99;100009.97;5130777;28;20445;-58
2022/03/27 02:43:05;;;;;;;2.75;2.03;;;;;;;21.36;28.03;100009.97;5130672;28;20500;-59
2022/03/27 02:45:32;;;;;;;3.17;2.05;;;;;;;21.38;27.98;100004.84;5130672;28;20085;-58
2022/03/27 02:47:58;;;;;;;2.78;1.98;;;;;;;21.35;27.97;100002.78;5130746;28;20095;-58
2022/03/27 02:50:26;;;;;;;2.75;1.95;;;;;;;21.39;27.95;100014.00;5130269;28;20101;-58
2022/03/27 02:52:52;;;;;;;2.80;1.80;;;;;;;21.39;27.89;100006.44;5130452;28;20078;-58
2022/03/27 02:55:17;;;;;;;3.55;2.13;;;;;;;21.38;27.90;100007.63;5130519;28;20418;-58
2022/03/27 02:57:43;;;;;;;3.28;2.17;;;;;;;21.37;27.96;100003.25;5130492;28;20047;-58
2022/03/27 03:00:09;;;;;;;2.75;1.80;;;;;;;21.39;27.89;100009.25;5132654;27;20047;-58
2022/03/27 03:02:35;;;;;;;2.42;1.60;;;;;;;21.37;27.96;100014.38;5134030;28;20050;-58
2022/03/27 03:05:02;;;;;;;3.15;1.90;;;;;;;21.39;27.87;100014.00;5133949;28;20135;-58
2022/03/27 03:07:27;;;;;;;2.88;1.90;;;;;;;21.38;27.97;100013.19;5133833;28;20188;-58
2022/03/27 03:09:54;;;;;;;3.08;1.98;;;;;;;21.39;27.62;100012.03;5133868;28;20122;-58
2022/03/27 03:12:20;;;;;;;3.17;1.92;;;;;;;21.38;27.88;100018.75;5133783;28;20031;-58
2022/03/27 03:14:45;;;;;;;2.75;1.90;;;;;;;21.40;27.79;100010.03;5133819;28;20112;-58
2022/03/27 03:17:11;;;;;;;2.75;1.85;;;;;;;21.40;27.81;100001.69;5133531;28;20043;-59
2022/03/27 03:19:37;;;;;;;2.65;1.73;;;;;;;21.41;27.58;100004.09;5101499;28;20043;-58
2022/03/27 03:22:02;;;;;;;2.45;1.73;;;;;;;21.41;27.77;100006.09;5133779;28;20038;-58
2022/03/27 03:24:28;;;;;;;3.17;2.10;;;;;;;21.39;27.47;100008.44;5133622;28;20406;-59
2022/03/27 03:26:57;;;;;;;2.60;1.83;;;;;;;21.41;27.76;100009.66;5133664;28;20040;-58
2022/03/27 03:29:23;;;;;;;2.60;1.80;;;;;;;21.43;27.81;100014.88;5133677;28;20054;-58
2022/03/27 03:31:49;;;;;;;3.00;1.85;;;;;;;21.42;27.61;100018.81;5133601;28;20043;-58
2022/03/27 03:34:15;;;;;;;2.63;1.70;;;;;;;21.44;27.75;100016.50;5133905;28;20035;-58
2022/03/27 03:36:41;;;;;;;3.20;1.92;;;;;;;21.44;27.78;100013.72;5133662;28;20463;-58
2022/03/27 03:39:07;;;;;;;3.20;2.00;;;;;;;21.43;27.64;100009.31;5133547;28;20134;-58
2022/03/27 03:41:33;;;;;;;2.97;1.92;;;;;;;21.47;27.76;100014.97;5133537;28;20392;-58
2022/03/27 03:43:58;;;;;;;2.80;1.92;;;;;;;21.45;27.77;100015.34;5133318;28;20539;-58
2022/03/27 03:46:24;;;;;;;3.13;1.92;;;;;;;21.46;27.79;100018.91;5133462;28;20573;-58
2022/03/27 03:48:50;;;;;;;2.72;1.95;;;;;;;21.47;27.70;100020.53;5133309;28;20071;-58
2022/03/27 03:51:16;;;;;;;3.08;2.08;;;;;;;21.46;27.53;100013.34;5133107;28;20043;-58
2022/03/27 03:53:41;;;;;;;3.08;2.00;;;;;;;21.48;27.61;100013.78;5133176;28;20100;-58
2022/03/27 03:56:07;;;;;;;2.72;2.00;;;;;;;21.48;27.84;100016.56;5133251;28;20459;-58
2022/03/27 03:58:32;;;;;;;2.78;2.03;;;;;;;21.49;27.60;100018.97;5133161;28;20418;-59
2022/03/27 04:00:57;;;;;;;3.30;1.95;;;;;;;21.49;27.90;100015.38;5133036;28;20092;-58
2022/03/27 04:03:23;;;;;;;2.95;2.00;;;;;;;21.47;27.98;100021.34;5132925;28;20088;-58
2022/03/27 04:05:48;;;;;;;2.83;2.08;;;;;;;21.47;27.93;100032.47;5132833;28;20185;-58
2022/03/27 04:08:14;;;;;;;2.97;2.10;;;;;;;21.48;27.75;100024.91;5132999;28;20126;-58
2022/03/27 04:10:41;;;;;;;3.58;2.13;;;;;;;21.49;27.82;100027.31;5132846;27;20122;-59
2022/03/27 04:13:09;;;;;;;3.05;2.28;;;;;;;21.50;27.93;100026.16;5132936;28;20063;-58
2022/03/27 04:15:35;;;;;;;2.80;2.00;;;;;;;21.49;27.64;100030.09;5132558;28;20384;-58
2022/03/27 04:18:01;;;;;;;2.67;1.95;;;;;;;21.50;28.06;100034.50;5132729;28;20051;-58
2022/03/27 04:20:26;;;;;;;3.33;2.28;;;;;;;21.48;27.86;100039.63;5132891;28;20043;-58
2022/03/27 04:22:52;;;;;;;2.88;1.98;;;;;;;21.50;27.60;100037.28;5133002;28;20499;-62
2022/03/27 04:25:17;;;;;;;3.40;2.45;;;;;;;21.49;27.72;100035.69;5132602;28;20162;-62
2022/03/27 04:27:43;;;;;;;4.22;2.30;;;;;;;21.48;27.91;100036.06;5132746;28;20126;-62
2022/03/27 04:30:10;;;;;;;2.85;2.10;;;;;;;21.48;27.65;100033.28;5132792;28;20042;-62
2022/03/27 04:32:37;;;;;;;3.38;2.25;;;;;;;21.47;27.81;100031.66;5132713;28;20043;-62
2022/03/27 04:35:04;;;;;;;3.72;2.78;;;;;;;21.46;27.98;100035.63;5132521;28;20073;-62
2022/03/27 04:37:29;;;;;;;3.15;2.20;;;;;;;21.46;27.96;100030.84;5132436;28;20047;-62
2022/03/27 04:40:02;;;;;;;3.33;2.42;;;;;;;21.47;27.87;100037.22;5132784;28;20100;-62
2022/03/27 04:42:27;;;;;;;2.92;2.28;;;;;;;21.46;27.57;100033.63;5132843;28;20058;-58
2022/03/27 04:44:53;;;;;;;3.40;2.40;;;;;;;21.45;27.88;100040.38;5132440;28;20483;-58
2022/03/27 04:47:19;;;;;;;3.30;2.40;;;;;;;21.47;27.73;100037.22;5132257;28;20076;-58
2022/03/27 04:49:44;;;;;;;3.92;2.33;;;;;;;21.46;27.74;100042.00;5132272;28;20047;-58
2022/03/27 04:52:09;;;;;;;3.33;2.40;;;;;;;21.49;27.94;100046.00;5132445;28;20058;-58
2022/03/27 04:54:35;;;;;;;3.28;2.40;;;;;;;21.48;27.69;100049.97;5132261;28;20039;-58
2022/03/27 04:57:01;;;;;;;3.63;2.50;;;;;;;21.46;27.91;100047.56;5132059;28;20043;-58
2022/03/27 04:59:26;;;;;;;3.42;2.47;;;;;;;21.50;27.81;100053.19;5132105;28;20042;-58
2022/03/27 05:01:52;;;;;;;3.42;2.40;;;;;;;21.51;27.51;100057.59;5132051;28;20043;-58
2022/03/27 05:04:17;;;;;;;3.60;2.40;;;;;;;21.51;27.72;100054.81;5132057;28;20411;-58
2022/03/27 05:06:43;;;;;;;3.75;2.35;;;;;;;21.50;27.66;100053.19;5132244;28;20051;-58
2022/03/27 05:09:08;;;;;;;3.28;2.25;;;;;;;21.52;27.87;100053.66;5132105;28;20047;-59
2022/03/27 05:11:34;;;;;;;3.72;2.60;;;;;;;21.52;27.58;100062.81;5131931;28;20047;-59
2022/03/27 05:13:59;;;;;;;3.60;2.65;;;;;;;21.52;27.74;100068.38;5132081;28;20419;-58
2022/03/27 05:16:25;;;;;;;3.45;2.42;;;;;;;21.51;27.66;100063.19;5131966;28;20252;-59
2022/03/27 05:18:50;;;;;;;3.65;2.25;;;;;;;21.52;27.87;100062.00;5131937;28;20039;-62
2022/03/27 05:21:16;;;;;;;2.53;1.80;;;;;;;21.52;27.60;100073.13;5131542;27;20039;-62
2022/03/27 05:23:42;;;;;;;3.25;2.40;;;;;;;21.50;27.85;100058.75;5131331;28;20043;-62
2022/03/27 05:26:08;;;;;;;3.95;2.53;;;;;;;21.54;27.86;100065.22;5131644;28;20040;-62
2022/03/27 05:28:34;;;;;;;3.40;2.30;;;;;;;21.50;27.91;100069.88;5097058;28;20408;-62
2022/03/27 05:31:02;;;;;;;3.15;2.30;;;;;;;21.51;27.96;100065.97;5131847;28;20039;-61
2022/03/27 05:33:28;;;;;;;3.10;2.28;;;;;;;21.53;27.62;100071.97;5131733;28;20054;-62
2022/03/27 05:35:54;;;;;;;3.55;2.22;;;;;;;21.52;27.80;100078.69;5131765;28;20400;-62
2022/03/27 05:38:23;;;;;;;3.30;2.45;;;;;;;21.52;27.82;100073.94;5131576;28;20522;-62
2022/03/27 05:40:48;;;;;;;3.17;2.33;;;;;;;21.53;27.61;100085.88;5131686;28;20118;-62
2022/03/27 05:43:14;;;;;;;3.00;2.13;;;;;;;21.53;27.76;100089.47;5098016;28;20180;-62
2022/03/27 05:45:40;;;;;;;2.70;2.03;;;;;;;21.53;27.70;100092.25;5131427;28;20110;-62
2022/03/27 05:48:06;;;;;;;3.35;2.20;;;;;;;21.53;27.75;100086.69;5131686;28;20050;-62
2022/03/27 05:50:32;;;;;;;2.97;2.10;;;;;;;21.51;27.69;100093.78;5131434;28;20039;-62
2022/03/27 05:52:57;;;;;;;3.08;2.10;;;;;;;21.53;27.67;100095.03;5131363;28;20059;-62
2022/03/27 05:55:23;;;;;;;3.22;2.28;;;;;;;21.54;27.79;100096.63;5131434;28;20041;-61
2022/03/27 05:57:48;;;;;;;3.08;2.20;;;;;;;21.55;27.53;100103.00;5131241;28;20878;-62
2022/03/27 06:00:21;;;;;;;2.67;1.75;;;;;;;21.55;27.84;100116.94;5131272;28;20563;-62
2022/03/27 06:02:50;;;;;;;3.17;2.10;;;;;;;21.54;27.82;100112.53;5131201;28;20047;-62
2022/03/27 06:05:17;;;;;;;3.15;2.05;;;;;;;21.55;27.66;100120.53;5130979;28;20134;-62
2022/03/27 06:08:01;;;;;;;2.80;2.00;;;;;;;21.53;28.01;100130.41;5131077;28;20035;-62
2022/03/27 06:10:32;;;;;;;3.33;2.10;;;;;;;21.56;27.73;100135.25;5130851;28;20050;-62
2022/03/27 06:12:59;;;;;;;3.47;2.30;;;;;;;21.57;27.74;100131.28;5130995;28;20039;-62
2022/03/27 06:15:25;;;;;;;3.47;2.08;;;;;;;21.57;27.94;100136.84;5130872;28;20050;-62
2022/03/27 06:17:52;;;;;;;3.20;2.03;;;;;;;21.56;28.00;100133.25;5130976;28;20070;-62
2022/03/27 06:20:20;;;;;;;2.88;1.83;;;;;;;21.57;27.80;100139.63;5130590;28;20525;-62
2022/03/27 06:22:46;;;;;;;3.10;2.00;;;;;;;21.56;28.08;100132.47;5130964;28;20043;-62
2022/03/27 06:25:15;;;;;;;2.65;1.92;;;;;;;21.57;27.82;100137.66;5130683;28;20130;-62
2022/03/27 06:27:41;;;;;;;3.42;2.10;;;;;;;21.58;27.92;100135.72;5130719;28;20045;-62
2022/03/27 06:30:09;;;;;;;3.38;2.30;;;;;;;21.57;27.85;100131.28;5130709;28;20031;-62
2022/03/27 06:32:36;;;;;;;3.78;2.35;;;;;;;21.58;27.82;100142.06;5130525;28;20050;-62
2022/03/27 06:35:04;;;;;;;3.15;2.10;;;;;;;21.60;27.69;100147.28;5129510;27;20099;-62
2022/03/27 06:37:30;;;;;;;3.63;2.10;;;;;;;21.60;27.67;100150.06;5130502;28;20054;-58
2022/03/27 06:39:56;;;;;;;2.92;2.13;;;;;;;21.58;27.75;100144.06;5130590;28;20096;-58
2022/03/27 06:42:22;;;;;;;3.17;2.10;;;;;;;21.57;28.05;100153.56;5130308;28;20051;-58
2022/03/27 06:44:48;;;;;;;2.85;2.13;;;;;;;21.57;27.99;100147.97;5128124;28;20043;-59
2022/03/27 06:47:14;;;;;;;2.83;2.10;;;;;;;21.57;27.83;100147.97;5130719;28;20035;-58
2022/03/27 06:49:40;;;;;;;3.03;2.20;;;;;;;21.57;27.68;100157.13;5130448;28;20054;-59
2022/03/27 06:52:06;;;;;;;3.38;2.10;;;;;;;21.57;28.04;100159.94;5130443;28;20051;-58
2022/03/27 06:54:33;;;;;;;3.30;2.33;;;;;;;21.58;27.80;100160.75;5130346;28;20047;-58
2022/03/27 06:56:59;;;;;;;3.50;2.50;;;;;;;21.57;27.89;100161.91;5130383;28;20043;-58
2022/03/27 06:59:24;;;;;;;3.25;2.35;;;;;;;21.60;27.61;100175.13;5130645;28;20092;-62
2022/03/27 07:04:34;;;;;;;2.97;2.17;;;;;;;21.58;28.03;100166.31;5130366;28;20058;-62
2022/03/27 07:07:00;;;;;;;3.30;2.30;;;;;;;21.57;27.99;100167.47;5130570;28;20039;-62
2022/03/27 07:09:26;;;;;;;3.20;2.30;;;;;;;21.57;27.67;100173.03;5130413;28;20043;-59
2022/03/27 07:11:51;;;;;;;2.88;2.05;;;;;;;21.57;27.67;100173.84;5130245;28;20099;-58
2022/03/27 07:14:18;;;;;;;3.42;2.22;;;;;;;21.55;27.84;100173.41;5130198;28;20099;-59
2022/03/27 07:16:43;;;;;;;2.88;2.17;;;;;;;21.56;27.86;100182.56;5129908;28;20487;-59
2022/03/27 07:19:10;;;;;;;3.70;2.30;;;;;;;21.56;27.40;100174.22;5130282;28;20138;-58
2022/03/27 07:21:36;;;;;;;3.20;2.20;;;;;;;21.55;27.44;100178.16;5130162;28;20043;-58
2022/03/27 07:24:02;;;;;;;2.97;2.17;;;;;;;21.56;27.55;100174.22;5130076;28;20410;-59
2022/03/27 07:26:27;;;;;;;3.22;2.20;;;;;;;21.57;27.34;100175.81;5129874;28;20031;-58
2022/03/27 07:28:53;;;;;;;2.80;2.00;;;;;;;21.55;27.57;100173.41;5130041;28;20043;-58
2022/03/27 07:31:18;;;;;;;2.88;1.95;;;;;;;21.50;27.57;100165.31;5130138;28;20084;-58
2022/03/27 07:33:43;;;;;;;2.90;2.00;;;;;;;21.55;27.57;100175.38;5129890;28;20081;-59
2022/03/27 07:36:10;;;;;;;3.20;2.13;;;;;;;21.56;27.20;100165.88;5130043;28;20125;-58
2022/03/27 07:38:35;;;;;;;3.13;2.20;;;;;;;21.53;27.15;100167.41;5129920;28;20066;-58
2022/03/27 07:41:01;;;;;;;3.40;2.40;;;;;;;21.53;26.94;100161.84;5129868;28;20415;-58
2022/03/27 07:43:27;;;;;;;3.08;2.22;;;;;;;21.54;27.34;100162.63;5129788;28;20115;-58
2022/03/27 07:45:52;;;;;;;3.25;2.25;;;;;;;21.52;27.24;100157.44;5131436;27;20071;-59
2022/03/27 07:48:18;;;;;;;3.13;2.22;;;;;;;21.53;26.77;100158.25;5133455;28;20126;-58
2022/03/27 07:50:46;;;;;;;3.65;2.40;;;;;;;21.52;26.84;100156.63;5133252;28;20035;-62
2022/03/27 07:53:11;;;;;;;3.33;2.10;;;;;;;21.51;26.88;100157.81;5133180;28;20051;-62
2022/03/27 07:55:37;;;;;;;3.47;2.47;;;;;;;21.53;26.98;100163.81;5133426;28;20399;-62
2022/03/27 07:58:03;;;;;;;3.40;2.20;;;;;;;21.53;27.09;100169.38;5133216;28;20058;-62
2022/03/27 08:00:29;;;;;;;2.78;1.80;;;;;;;21.53;27.19;100169.38;5132981;28;21329;-62
2022/03/27 08:02:55;;;;;;;3.33;2.25;;;;;;;21.51;26.99;100164.19;5133052;28;20043;-62
2022/03/27 08:05:23;;;;;;;3.20;2.28;;;;;;;21.52;26.80;100165.00;5133049;28;20614;-62
2022/03/27 08:07:49;;;;;;;3.05;2.30;;;;;;;21.47;26.76;100162.47;5133061;28;20144;-62
2022/03/27 08:10:15;;;;;;;3.38;2.20;;;;;;;21.47;26.77;100162.47;5132973;28;20098;-62
2022/03/27 08:12:42;;;;;;;2.85;2.05;;;;;;;21.45;26.71;100162.84;5132853;28;20043;-62
2022/03/27 08:15:08;;;;;;;3.00;1.92;;;;;;;21.45;26.49;100168.41;5132973;28;20526;-62
2022/03/27 08:17:34;;;;;;;2.95;2.20;;;;;;;21.45;26.57;100167.59;5132698;28;20062;-62
2022/03/27 08:20:00;;;;;;;2.78;2.03;;;;;;;21.41;26.63;100159.16;5132743;28;20125;-61
2022/03/27 08:22:25;;;;;;;3.45;2.17;;;;;;;21.41;26.65;100161.94;5132779;28;20529;-62
2022/03/27 08:24:51;;;;;;;2.65;1.83;;;;;;;21.39;26.62;100162.28;5132637;28;20039;-62
2022/03/27 08:27:17;;;;;;;3.17;2.03;;;;;;;21.39;26.41;100165.09;5132629;28;20062;-62
2022/03/27 08:29:45;;;;;;;3.17;2.20;;;;;;;21.37;26.64;100161.88;5132865;28;20179;-62
2022/03/27 08:32:14;;;;;;;4.97;2.20;;;;;;;21.37;26.62;100158.28;5132584;28;20499;-62
2022/03/27 08:34:42;;;;;;;3.15;2.00;;;;;;;21.36;26.48;100163.03;5132603;28;20039;-62
2022/03/27 08:37:09;;;;;;;3.53;2.35;;;;;;;21.35;26.60;100166.97;5132565;28;20407;-62
2022/03/27 08:39:35;;;;;;;3.00;2.22;;;;;;;21.35;26.50;100169.75;5132229;28;20058;-62
2022/03/27 08:42:01;;;;;;;2.90;2.10;;;;;;;21.34;26.73;100168.13;5132486;28;20051;-61
2022/03/27 08:44:28;;;;;;;3.15;2.30;;;;;;;21.34;26.51;100165.34;5132278;28;20051;-62
2022/03/27 08:46:56;;;;;;;2.97;2.25;;;;;;;21.34;26.86;100168.13;5132475;28;20035;-62
2022/03/27 08:49:49;;;;;;;3.40;2.28;;;;;;;21.33;26.77;100171.28;5132379;28;20049;-62
2022/03/27 08:52:17;;;;;;;3.13;2.13;;;;;;;21.33;26.48;100163.75;5094188;28;20100;-62
2022/03/27 08:55:05;;;;;;;3.38;2.05;;;;;;;21.32;26.76;100166.88;5132181;28;20031;-62
2022/03/27 08:57:48;;;;;;;3.10;2.03;;;;;;;21.29;26.57;100171.22;5131125;27;20415;-62
2022/03/27 09:00:14;;;;;;;3.55;2.20;;;;;;;21.29;26.74;100160.06;5113809;28;20078;-62
2022/03/27 09:02:41;;;;;;;3.28;2.30;;;;;;;21.28;26.45;100166.78;5131967;28;20071;-62
2022/03/27 09:05:07;;;;;;;3.10;2.10;;;;;;;21.27;26.67;100170.69;5132116;28;20503;-62
2022/03/27 09:07:33;;;;;;;3.33;2.15;;;;;;;21.28;26.83;100164.00;5132150;28;20043;-58
2022/03/27 09:09:58;;;;;;;3.25;2.03;;;;;;;21.29;26.73;100171.22;5132033;28;20035;-59
2022/03/27 09:12:24;;;;;;;3.13;2.22;;;;;;;21.29;26.74;100171.22;5131966;28;20089;-58
2022/03/27 09:14:50;;;;;;;3.53;2.33;;;;;;;21.29;26.75;100164.81;5131978;28;20473;-58
2022/03/27 09:17:16;;;;;;;3.42;2.10;;;;;;;21.28;26.83;100163.19;5131842;28;20082;-58
2022/03/27 09:19:49;;;;;;;3.75;2.35;;;;;;;21.27;26.82;100165.13;5131954;28;20041;-57
2022/03/27 09:22:14;;;;;;;3.35;2.22;;;;;;;21.31;26.65;100165.28;5132111;28;20035;-58
2022/03/27 09:24:41;;;;;;;3.47;2.25;;;;;;;21.29;26.70;100160.06;5131788;28;20450;-59
2022/03/27 09:27:07;;;;;;;2.88;2.08;;;;;;;21.29;26.58;100164.81;5131731;28;20545;-58
2022/03/27 09:30:06;;;;;;;3.00;2.17;;;;;;;21.29;26.29;100162.84;5131767;28;20126;-57
2022/03/27 09:32:37;;;;;;;2.83;2.05;;;;;;;21.30;26.09;100167.25;5127877;28;20078;-59
2022/03/27 09:35:16;;;;;;;3.17;2.17;;;;;;;21.30;26.36;100164.47;5131679;28;20062;-58
2022/03/27 09:37:45;;;;;;;3.00;2.05;;;;;;;21.32;26.13;100166.88;5130417;28;20051;-59
2022/03/27 09:40:12;;;;;;;3.65;2.05;;;;;;;21.32;25.93;100170.47;5130635;28;20529;-58
2022/03/27 09:42:40;;;;;;;3.60;2.05;;;;;;;21.31;26.11;100168.84;5131559;28;20039;-58
2022/03/27 09:45:23;;;;;;;3.20;2.38;;;;;;;21.31;25.80;100162.50;5131196;28;20114;-59
2022/03/27 09:47:51;;;;;;;3.10;2.20;;;;;;;21.33;25.19;100172.09;5131296;28;20049;-58
2022/03/27 09:50:34;;;;;;;2.95;2.00;;;;;;;21.31;25.36;100165.28;5131465;28;20039;-58
2022/03/27 09:53:27;;;;;;;3.53;2.10;;;;;;;21.31;25.09;100168.84;5131253;28;20054;-58
2022/03/27 09:55:58;;;;;;;3.17;2.13;;;;;;;21.31;25.01;100170.84;5131463;28;20047;-58
2022/03/27 09:58:43;;;;;;;2.72;1.92;;;;;;;21.31;25.13;100166.06;5131342;28;20039;-59
2022/03/27 10:01:19;;;;;;;2.92;2.00;;;;;;;21.34;24.63;100172.88;5131012;28;20039;-58
2022/03/27 10:03:58;;;;;;;3.53;2.20;;;;;;;21.32;25.02;100164.91;5131123;28;20079;-58
2022/03/27 10:06:33;;;;;;;2.63;1.90;;;;;;;21.32;24.77;100162.13;5131115;28;20049;-58
2022/03/27 10:09:00;;;;;;;3.13;2.00;;;;;;;21.34;24.72;100165.34;5130740;27;20411;-58
2022/03/27 10:11:28;;;;;;;3.42;2.08;;;;;;;21.34;24.33;100168.13;5131123;28;20128;-58
2022/03/27 10:13:54;;;;;;;2.90;1.98;;;;;;;21.32;24.41;100156.56;5131107;28;20031;-58
2022/03/27 10:16:25;;;;;;;2.97;2.08;;;;;;;21.34;24.46;100159.78;5130689;28;20780;-59
2022/03/27 10:18:59;;;;;;;3.58;2.08;;;;;;;21.34;24.10;100151.44;5130997;28;20047;-58
2022/03/27 10:21:26;;;;;;;2.83;1.92;;;;;;;21.36;24.20;100156.63;5130821;28;20525;-58
2022/03/27 10:24:14;;;;;;;3.15;2.30;;;;;;;21.35;24.18;100155.03;5130741;28;20454;-59
2022/03/27 10:26:41;;;;;;;2.75;1.88;;;;;;;21.37;24.06;100145.16;5130843;28;20074;-59
2022/03/27 10:29:08;;;;;;;2.72;1.95;;;;;;;21.34;23.99;100148.66;5130708;28;20137;-58
2022/03/27 10:31:33;;;;;;;2.78;2.00;;;;;;;21.36;23.89;100148.28;5130681;28;20087;-59
2022/03/27 10:34:01;;;;;;;2.90;2.03;;;;;;;21.39;24.02;100144.78;5130694;28;20134;-58
2022/03/27 10:36:55;;;;;;;2.58;1.90;;;;;;;21.36;23.68;100139.94;5130660;28;20043;-58
2022/03/27 10:39:28;;;;;;;2.70;1.80;;;;;;;21.38;23.46;100145.97;5120115;28;20039;-62
2022/03/27 10:42:03;;;;;;;;;;;;;;;21.42;23.42;100142.09;5131152;28;20518;-61
2022/03/27 10:44:37;;;;;;;3.05;2.20;;;;;;;21.40;23.54;100138.06;5130747;28;19915;-62
2022/03/27 10:47:20;;;;;;;3.05;2.20;;;;;;;21.40;23.40;100130.50;5130616;28;20039;-62
2022/03/27 10:50:01;;;;;;;3.65;2.35;;;;;;;21.40;23.30;100127.72;5130511;28;20047;-58
2022/03/27 10:52:27;;;;;;;3.28;2.30;;;;;;;21.41;23.37;100122.97;5130587;28;20111;-58
2022/03/27 10:55:02;;;;;;;3.03;2.00;;;;;;;21.41;23.23;100117.41;5130526;28;20126;-59
2022/03/27 10:57:36;;;;;;;2.67;1.98;;;;;;;21.41;23.33;100112.63;5130343;28;20042;-58
2022/03/27 11:00:05;;;;;;;2.80;1.85;;;;;;;21.40;23.19;100108.25;5130459;28;20039;-58
2022/03/27 11:02:50;;;;;;;2.88;2.05;;;;;;;21.42;22.92;100110.66;5130437;28;20061;-58
2022/03/27 11:05:31;;;;;;;3.33;1.92;;;;;;;21.42;22.83;100103.13;5130452;28;20456;-59
2022/03/27 11:08:15;;;;;;;4.75;1.95;;;;;;;21.43;22.82;100098.34;5130129;28;20043;-58
2022/03/27 11:10:41;;;;;;;3.00;2.00;;;;;;;21.43;22.54;100099.19;5130456;28;20046;-58
2022/03/27 11:13:25;;;;;;;3.42;2.38;;;;;;;21.43;22.73;100093.63;5130403;28;20446;-62
2022/03/27 11:16:05;;;;;;;2.95;2.00;;;;;;;21.43;22.94;100085.28;5130246;28;20039;-62
2022/03/27 11:18:41;;;;;;;2.70;1.80;;;;;;;21.45;22.68;100086.88;5130089;28;20048;-62
2022/03/27 11:21:12;;;;;;;2.90;1.90;;;;;;;21.45;22.76;100087.69;5132396;27;20287;-61
2022/03/27 11:23:39;;;;;;;2.95;2.20;;;;;;;21.48;22.59;100080.59;5133855;28;20050;-62
2022/03/27 11:26:27;;;;;;;3.33;2.10;;;;;;;21.50;22.51;100083.81;5133712;28;20039;-62
2022/03/27 11:28:59;;;;;;;3.38;2.35;;;;;;;21.50;22.62;100086.59;5133562;28;20047;-61
2022/03/27 11:31:36;;;;;;;2.85;1.98;;;;;;;21.50;22.46;100078.22;5133508;28;20126;-58
2022/03/27 11:34:04;;;;;;;3.15;2.17;;;;;;;21.50;22.74;100064.31;5133592;28;20035;-58
2022/03/27 11:36:31;;;;;;;3.30;2.20;;;;;;;21.52;22.74;100064.78;5133506;28;20410;-57